createdAt,value
2023-01-02T00:00:32.756Z,1006.24
2023-01-02T00:01:32.687Z,1006.27
2023-01-02T00:02:32.954Z,1006.29
2023-01-02T00:03:32.887Z,1006.28
2023-01-02T00:04:32.722Z,1006.26
2023-01-02T00:05:32.673Z,1006.24
2023-01-02T00:06:33.242Z,1006.25
2023-01-02T00:07:32.605Z,1006.22
2023-01-02T00:08:33.104Z,1006.20
2023-01-02T00:09:32.585Z,1006.20
2023-01-02T00:10:32.570Z,1006.20
2023-01-02T00:11:32.776Z,1006.22
2023-01-02T00:12:32.628Z,1006.22
2023-01-02T00:13:32.572Z,1006.25
2023-01-02T00:14:32.728Z,1006.25
2023-01-02T00:15:32.555Z,1006.24
2023-01-02T00:16:32.723Z,1006.24
2023-01-02T00:17:32.753Z,1006.23
2023-01-02T00:18:32.530Z,1006.25
2023-01-02T00:19:32.499Z,1006.24
2023-01-02T00:20:32.613Z,1006.23
2023-01-02T00:21:32.481Z,1006.23
2023-01-02T00:22:32.469Z,1006.23
2023-01-02T00:23:32.460Z,1006.22
2023-01-02T00:24:33.829Z,1006.25
2023-01-02T00:25:32.424Z,1006.26
2023-01-02T00:26:32.402Z,1006.30
2023-01-02T00:27:32.568Z,1006.27
2023-01-02T00:28:32.402Z,1006.30
2023-01-02T00:29:32.394Z,1006.24
2023-01-02T00:30:38.016Z,1006.29
2023-01-02T00:31:32.401Z,1006.31
2023-01-02T00:32:32.397Z,1006.33
2023-01-02T00:33:32.389Z,1006.36
2023-01-02T00:34:32.333Z,1006.34
2023-01-02T00:35:32.325Z,1006.32
2023-01-02T00:36:32.295Z,1006.31
2023-01-02T00:37:32.357Z,1006.31
2023-01-02T00:38:32.261Z,1006.29
2023-01-02T00:39:32.320Z,1006.26
2023-01-02T00:40:32.265Z,1006.24
2023-01-02T00:41:32.241Z,1006.27
2023-01-02T00:42:32.254Z,1006.30
2023-01-02T00:43:32.324Z,1006.26
2023-01-02T00:44:32.313Z,1006.25
2023-01-02T00:45:32.209Z,1006.22
2023-01-02T00:46:32.281Z,1006.18
2023-01-02T00:47:32.199Z,1006.18
2023-01-02T00:48:32.162Z,1006.17
2023-01-02T00:49:32.175Z,1006.13
2023-01-02T00:50:32.161Z,1006.19
2023-01-02T00:51:32.199Z,1006.17
2023-01-02T00:52:32.161Z,1006.14
2023-01-02T00:53:32.130Z,1006.12
2023-01-02T00:54:32.127Z,1006.13
2023-01-02T00:55:32.111Z,1006.14
2023-01-02T00:56:32.076Z,1006.15
2023-01-02T00:57:32.126Z,1006.13
2023-01-02T00:58:32.081Z,1006.16
2023-01-02T00:59:32.060Z,1006.16
2023-01-02T01:00:32.113Z,1006.17
2023-01-02T01:01:32.107Z,1006.16
2023-01-02T01:02:32.230Z,1006.11
2023-01-02T01:03:32.054Z,1006.11
2023-01-02T01:04:32.004Z,1006.11
2023-01-02T01:05:32.015Z,1006.10
2023-01-02T01:06:31.997Z,1006.10
2023-01-02T01:07:31.987Z,1006.07
2023-01-02T01:08:31.956Z,1006.08
2023-01-02T01:09:32.014Z,1006.06
2023-01-02T01:10:31.947Z,1006.07
2023-01-02T01:11:31.926Z,1006.02
2023-01-02T01:12:31.947Z,1005.98
2023-01-02T01:13:31.907Z,1005.98
2023-01-02T01:14:31.929Z,1005.99
2023-01-02T01:15:31.922Z,1005.98
2023-01-02T01:16:31.956Z,1005.97
2023-01-02T01:17:31.875Z,1006.00
2023-01-02T01:18:31.853Z,1006.00
2023-01-02T01:19:31.849Z,1006.00
2023-01-02T01:20:31.852Z,1006.00
2023-01-02T01:21:31.834Z,1006.00
2023-01-02T01:22:31.887Z,1006.02
2023-01-02T01:23:31.799Z,1005.98
2023-01-02T01:24:31.779Z,1005.96
2023-01-02T01:25:31.792Z,1005.96
2023-01-02T01:26:31.743Z,1005.91
2023-01-02T01:27:31.771Z,1005.90
2023-01-02T01:28:31.761Z,1005.88
2023-01-02T01:29:31.776Z,1005.88
2023-01-02T01:30:31.741Z,1005.86
2023-01-02T01:31:31.740Z,1005.82
2023-01-02T01:32:31.706Z,1005.78
2023-01-02T01:33:31.717Z,1005.78
2023-01-02T01:34:31.696Z,1005.80
2023-01-02T01:35:31.661Z,1005.80
2023-01-02T01:36:31.673Z,1005.84
2023-01-02T01:37:31.692Z,1005.83
2023-01-02T01:38:31.661Z,1005.79
2023-01-02T01:39:31.627Z,1005.82
2023-01-02T01:40:31.620Z,1005.84
2023-01-02T01:41:31.625Z,1005.86
2023-01-02T01:42:31.581Z,1005.90
2023-01-02T01:43:31.577Z,1005.89
2023-01-02T01:44:31.557Z,1005.87
2023-01-02T01:45:31.592Z,1005.89
2023-01-02T01:46:31.582Z,1005.88
2023-01-02T01:47:31.558Z,1005.90
2023-01-02T01:48:31.520Z,1005.91
2023-01-02T01:49:31.520Z,1005.93
2023-01-02T01:50:31.529Z,1005.97
2023-01-02T01:51:31.524Z,1006.00
2023-01-02T01:52:31.499Z,1006.03
2023-01-02T01:53:31.486Z,1006.02
2023-01-02T01:54:31.484Z,1006.05
2023-01-02T01:55:31.479Z,1006.03
2023-01-02T01:56:31.429Z,1006.00
2023-01-02T01:57:31.461Z,1006.03
2023-01-02T01:58:31.470Z,1006.04
2023-01-02T01:59:31.490Z,1006.01
2023-01-02T02:00:31.409Z,1005.95
2023-01-02T02:01:31.526Z,1006.01
2023-01-02T02:02:31.491Z,1005.95
2023-01-02T02:03:31.416Z,1005.99
2023-01-02T02:04:31.386Z,1005.98
2023-01-02T02:05:31.359Z,1005.97
2023-01-02T02:06:31.335Z,1005.95
2023-01-02T02:07:31.355Z,1005.98
2023-01-02T02:08:31.439Z,1005.99
2023-01-02T02:09:31.350Z,1006.02
2023-01-02T02:10:31.305Z,1006.04
2023-01-02T02:11:31.307Z,1006.03
2023-01-02T02:12:31.286Z,1006.00
2023-01-02T02:13:31.345Z,1006.03
2023-01-02T02:14:31.283Z,1006.02
2023-01-02T02:15:31.272Z,1006.03
2023-01-02T02:16:31.270Z,1006.02
2023-01-02T02:17:31.233Z,1006.02
2023-01-02T02:18:31.291Z,1006.04
2023-01-02T02:19:31.278Z,1006.05
2023-01-02T02:20:31.224Z,1006.05
2023-01-02T02:21:31.210Z,1006.01
2023-01-02T02:22:31.177Z,1006.00
2023-01-02T02:23:31.150Z,1006.00
2023-01-02T02:24:31.133Z,1005.97
2023-01-02T02:25:31.134Z,1005.97
2023-01-02T02:26:31.134Z,1005.97
2023-01-02T02:27:31.126Z,1005.97
2023-01-02T02:28:31.093Z,1005.96
2023-01-02T02:29:31.104Z,1005.96
2023-01-02T02:30:31.200Z,1005.98
2023-01-02T02:31:31.123Z,1005.97
2023-01-02T02:32:31.054Z,1005.99
2023-01-02T02:33:31.088Z,1005.96
2023-01-02T02:34:31.021Z,1005.95
2023-01-02T02:35:31.023Z,1005.96
2023-01-02T02:36:31.028Z,1005.96
2023-01-02T02:37:31.000Z,1005.97
2023-01-02T02:38:31.003Z,1005.97
2023-01-02T02:39:31.135Z,1005.98
2023-01-02T02:40:31.017Z,1005.95
2023-01-02T02:41:30.985Z,1005.95
2023-01-02T02:42:30.975Z,1005.94
2023-01-02T02:43:30.969Z,1005.94
2023-01-02T02:44:30.932Z,1005.91
2023-01-02T02:45:31.112Z,1005.92
2023-01-02T02:46:30.952Z,1005.95
2023-01-02T02:47:30.957Z,1005.95
2023-01-02T02:48:30.890Z,1005.96
2023-01-02T02:49:30.903Z,1005.93
2023-01-02T02:50:30.897Z,1005.93
2023-01-02T02:51:30.961Z,1005.93
2023-01-02T02:52:30.895Z,1005.93
2023-01-02T02:53:30.864Z,1005.99
2023-01-02T02:54:30.902Z,1005.95
2023-01-02T02:55:30.814Z,1005.99
2023-01-02T02:56:30.808Z,1005.97
2023-01-02T02:57:30.838Z,1005.94
2023-01-02T02:58:30.792Z,1005.99
2023-01-02T02:59:30.972Z,1005.98
2023-01-02T03:00:30.795Z,1005.98
2023-01-02T03:01:31.408Z,1005.96
2023-01-02T03:02:31.038Z,1005.94
2023-01-02T03:03:30.766Z,1005.90
2023-01-02T03:04:30.796Z,1005.90
2023-01-02T03:05:30.773Z,1005.88
2023-01-02T03:06:30.705Z,1005.83
2023-01-02T03:07:30.708Z,1005.83
2023-01-02T03:08:33.181Z,1005.84
2023-01-02T03:09:30.686Z,1005.83
2023-01-02T03:10:30.678Z,1005.83
2023-01-02T03:11:30.647Z,1005.80
2023-01-02T03:12:30.627Z,1005.78
2023-01-02T03:13:40.568Z,1005.73
2023-01-02T03:14:30.653Z,1005.72
2023-01-02T03:15:30.627Z,1005.69
2023-01-02T03:16:30.621Z,1005.67
2023-01-02T03:17:30.610Z,1005.67
2023-01-02T03:18:30.668Z,1005.69
2023-01-02T03:19:30.695Z,1005.68
2023-01-02T03:20:30.704Z,1005.72
2023-01-02T03:21:31.580Z,1005.70
2023-01-02T03:22:31.309Z,1005.69
2023-01-02T03:23:30.518Z,1005.68
2023-01-02T03:24:30.507Z,1005.68
2023-01-02T03:25:30.512Z,1005.68
2023-01-02T03:26:30.502Z,1005.70
2023-01-02T03:27:30.490Z,1005.71
2023-01-02T03:28:30.463Z,1005.67
2023-01-02T03:29:30.468Z,1005.70
2023-01-02T03:30:30.453Z,1005.72
2023-01-02T03:31:30.534Z,1005.78
2023-01-02T03:32:30.430Z,1005.80
2023-01-02T03:33:30.421Z,1005.79
2023-01-02T03:34:30.428Z,1005.83
2023-01-02T03:35:30.408Z,1005.85
2023-01-02T03:36:30.446Z,1005.87
2023-01-02T03:37:30.414Z,1005.89
2023-01-02T03:38:30.344Z,1005.89
2023-01-02T03:39:30.356Z,1005.88
2023-01-02T03:40:30.414Z,1005.91
2023-01-02T03:41:30.355Z,1005.93
2023-01-02T03:42:30.346Z,1005.96
2023-01-02T03:43:30.340Z,1006.00
2023-01-02T03:44:30.284Z,1005.98
2023-01-02T03:45:30.319Z,1005.98
2023-01-02T03:46:30.288Z,1006.02
2023-01-02T03:47:30.263Z,1006.03
2023-01-02T03:48:30.233Z,1006.02
2023-01-02T03:49:30.268Z,1006.02
2023-01-02T03:50:30.250Z,1006.09
2023-01-02T03:51:30.224Z,1006.06
2023-01-02T03:52:30.233Z,1006.05
2023-01-02T03:53:30.201Z,1006.06
2023-01-02T03:54:30.209Z,1006.04
2023-01-02T03:55:30.172Z,1006.09
2023-01-02T03:56:30.217Z,1006.09
2023-01-02T03:57:30.128Z,1006.04
2023-01-02T03:58:30.182Z,1006.07
2023-01-02T03:59:30.116Z,1006.11
2023-01-02T04:00:30.126Z,1006.11
2023-01-02T04:01:30.248Z,1006.07
2023-01-02T04:02:30.298Z,1006.10
2023-01-02T04:03:30.111Z,1006.05
2023-01-02T04:04:30.110Z,1006.07
2023-01-02T04:05:30.101Z,1006.08
2023-01-02T04:06:30.083Z,1006.06
2023-01-02T04:07:30.050Z,1006.08
2023-01-02T04:08:30.032Z,1006.09
2023-01-02T04:09:30.022Z,1006.08
2023-01-02T04:10:30.019Z,1006.15
2023-01-02T04:11:30.015Z,1006.13
2023-01-02T04:12:29.994Z,1006.18
2023-01-02T04:13:30.017Z,1006.15
2023-01-02T04:14:29.969Z,1006.19
2023-01-02T04:15:30.041Z,1006.18
2023-01-02T04:16:29.960Z,1006.15
2023-01-02T04:17:29.959Z,1006.19
2023-01-02T04:18:29.941Z,1006.21
2023-01-02T04:19:29.923Z,1006.19
2023-01-02T04:20:29.954Z,1006.19
2023-01-02T04:21:29.946Z,1006.22
2023-01-02T04:22:29.893Z,1006.23
2023-01-02T04:23:29.894Z,1006.24
2023-01-02T04:24:29.900Z,1006.20
2023-01-02T04:25:29.885Z,1006.18
2023-01-02T04:26:29.856Z,1006.15
2023-01-02T04:27:29.900Z,1006.12
2023-01-02T04:28:29.835Z,1006.12
2023-01-02T04:29:29.801Z,1006.09
2023-01-02T04:30:29.821Z,1006.07
2023-01-02T04:31:29.821Z,1006.01
2023-01-02T04:32:29.788Z,1006.00
2023-01-02T04:33:29.765Z,1005.97
2023-01-02T04:34:29.783Z,1005.99
2023-01-02T04:35:29.754Z,1005.99
2023-01-02T04:36:29.774Z,1006.00
2023-01-02T04:37:29.744Z,1006.01
2023-01-02T04:38:29.699Z,1006.03
2023-01-02T04:39:29.693Z,1006.03
2023-01-02T04:40:29.698Z,1006.03
2023-01-02T04:41:29.674Z,1006.05
2023-01-02T04:42:29.703Z,1006.05
2023-01-02T04:43:29.669Z,1006.05
2023-01-02T04:44:29.645Z,1006.06
2023-01-02T04:45:29.689Z,1006.05
2023-01-02T04:46:29.704Z,1006.05
2023-01-02T04:47:29.616Z,1006.09
2023-01-02T04:48:29.629Z,1006.07
2023-01-02T04:49:29.618Z,1006.09
2023-01-02T04:50:29.596Z,1006.05
2023-01-02T04:51:29.564Z,1006.09
2023-01-02T04:52:35.061Z,1006.09
2023-01-02T04:53:29.616Z,1006.11
2023-01-02T04:54:29.536Z,1006.11
2023-01-02T04:55:29.557Z,1006.09
2023-01-02T04:56:29.552Z,1006.08
2023-01-02T04:57:29.515Z,1006.06
2023-01-02T04:58:29.539Z,1006.10
2023-01-02T04:59:29.591Z,1006.09
2023-01-02T05:00:29.470Z,1006.09
2023-01-02T05:01:29.545Z,1006.16
2023-01-02T05:02:29.598Z,1006.14
2023-01-02T05:03:29.507Z,1006.12
2023-01-02T05:04:29.438Z,1006.16
2023-01-02T05:05:29.413Z,1006.15
2023-01-02T05:06:29.419Z,1006.16
2023-01-02T05:07:29.438Z,1006.18
2023-01-02T05:08:29.413Z,1006.18
2023-01-02T05:09:29.381Z,1006.20
2023-01-02T05:10:29.403Z,1006.18
2023-01-02T05:11:29.375Z,1006.17
2023-01-02T05:12:29.341Z,1006.20
2023-01-02T05:13:29.365Z,1006.25
2023-01-02T05:14:29.343Z,1006.19
2023-01-02T05:15:29.335Z,1006.22
2023-01-02T05:16:29.443Z,1006.23
2023-01-02T05:17:29.321Z,1006.25
2023-01-02T05:18:29.302Z,1006.27
2023-01-02T05:19:29.292Z,1006.19
2023-01-02T05:20:29.279Z,1006.27
2023-01-02T05:21:29.255Z,1006.22
2023-01-02T05:22:29.295Z,1006.22
2023-01-02T05:23:29.285Z,1006.23
2023-01-02T05:24:29.249Z,1006.20
2023-01-02T05:25:29.210Z,1006.18
2023-01-02T05:26:29.228Z,1006.13
2023-01-02T05:27:29.180Z,1006.21
2023-01-02T05:28:32.481Z,1006.22
2023-01-02T05:29:29.244Z,1006.23
2023-01-02T05:30:29.186Z,1006.19
2023-01-02T05:31:29.352Z,1006.16
2023-01-02T05:32:29.193Z,1006.21
2023-01-02T05:33:29.114Z,1006.27
2023-01-02T05:34:29.247Z,1006.32
2023-01-02T05:35:32.838Z,1006.32
2023-01-02T05:36:29.113Z,1006.35
2023-01-02T05:37:29.073Z,1006.34
2023-01-02T05:38:29.117Z,1006.35
2023-01-02T05:39:29.056Z,1006.33
2023-01-02T05:40:29.075Z,1006.39
2023-01-02T05:41:29.051Z,1006.42
2023-01-02T05:42:29.072Z,1006.46
2023-01-02T05:43:29.059Z,1006.50
2023-01-02T05:44:29.011Z,1006.52
2023-01-02T05:45:28.979Z,1006.56
2023-01-02T05:46:29.067Z,1006.56
2023-01-02T05:47:28.989Z,1006.53
2023-01-02T05:48:28.984Z,1006.53
2023-01-02T05:49:28.992Z,1006.52
2023-01-02T05:50:28.953Z,1006.51
2023-01-02T05:51:28.951Z,1006.48
2023-01-02T05:52:28.957Z,1006.49
2023-01-02T05:53:28.914Z,1006.47
2023-01-02T05:54:28.956Z,1006.50
2023-01-02T05:55:28.928Z,1006.48
2023-01-02T05:56:28.907Z,1006.46
2023-01-02T05:57:28.910Z,1006.45
2023-01-02T05:58:28.895Z,1006.45
2023-01-02T05:59:28.887Z,1006.40
2023-01-02T06:00:28.894Z,1006.43
2023-01-02T06:01:28.910Z,1006.44
2023-01-02T06:02:28.993Z,1006.43
2023-01-02T06:03:28.939Z,1006.45
2023-01-02T06:04:28.812Z,1006.39
2023-01-02T06:05:28.850Z,1006.40
2023-01-02T06:06:28.805Z,1006.41
2023-01-02T06:07:28.777Z,1006.48
2023-01-02T06:08:28.825Z,1006.42
2023-01-02T06:09:28.770Z,1006.46
2023-01-02T06:10:28.741Z,1006.46
2023-01-02T06:11:28.752Z,1006.47
2023-01-02T06:12:28.732Z,1006.51
2023-01-02T06:13:28.682Z,1006.51
2023-01-02T06:14:28.750Z,1006.52
2023-01-02T06:15:28.726Z,1006.54
2023-01-02T06:16:28.710Z,1006.58
2023-01-02T06:17:28.643Z,1006.53
2023-01-02T06:18:28.675Z,1006.55
2023-01-02T06:19:28.681Z,1006.57
2023-01-02T06:20:28.622Z,1006.56
2023-01-02T06:21:28.620Z,1006.59
2023-01-02T06:22:28.653Z,1006.59
2023-01-02T06:23:28.606Z,1006.58
2023-01-02T06:24:28.632Z,1006.67
2023-01-02T06:25:28.645Z,1006.63
2023-01-02T06:26:34.267Z,1006.67
2023-01-02T06:27:28.584Z,1006.68
2023-01-02T06:28:28.552Z,1006.64
2023-01-02T06:29:28.568Z,1006.65
2023-01-02T06:30:28.526Z,1006.64
2023-01-02T06:31:28.534Z,1006.64
2023-01-02T06:32:28.521Z,1006.66
2023-01-02T06:33:28.520Z,1006.64
2023-01-02T06:34:28.502Z,1006.65
2023-01-02T06:35:28.471Z,1006.63
2023-01-02T06:36:28.472Z,1006.65
2023-01-02T06:37:28.475Z,1006.69
2023-01-02T06:38:28.434Z,1006.68
2023-01-02T06:39:28.419Z,1006.69
2023-01-02T06:40:28.419Z,1006.73
2023-01-02T06:41:28.407Z,1006.74
2023-01-02T06:42:28.435Z,1006.71
2023-01-02T06:43:28.375Z,1006.75
2023-01-02T06:44:28.389Z,1006.75
2023-01-02T06:45:28.409Z,1006.79
2023-01-02T06:46:28.366Z,1006.73
2023-01-02T06:47:28.360Z,1006.77
2023-01-02T06:48:28.359Z,1006.74
2023-01-02T06:49:28.331Z,1006.78
2023-01-02T06:50:34.630Z,1006.78
2023-01-02T06:51:28.328Z,1006.79
2023-01-02T06:52:28.315Z,1006.78
2023-01-02T06:53:28.288Z,1006.79
2023-01-02T06:54:28.302Z,1006.82
2023-01-02T06:55:28.272Z,1006.78
2023-01-02T06:56:28.257Z,1006.82
2023-01-02T06:57:28.232Z,1006.86
2023-01-02T06:58:28.248Z,1006.79
2023-01-02T06:59:28.193Z,1006.82
2023-01-02T07:00:28.201Z,1006.85
2023-01-02T07:01:28.299Z,1006.91
2023-01-02T07:02:28.362Z,1006.88
2023-01-02T07:03:28.171Z,1006.94
2023-01-02T07:04:28.214Z,1006.84
2023-01-02T07:05:28.143Z,1006.85
2023-01-02T07:06:28.164Z,1006.87
2023-01-02T07:07:28.130Z,1006.88
2023-01-02T07:08:28.112Z,1006.87
2023-01-02T07:09:28.099Z,1006.84
2023-01-02T07:10:28.123Z,1006.87
2023-01-02T07:11:28.107Z,1006.88
2023-01-02T07:12:28.104Z,1006.92
2023-01-02T07:13:28.028Z,1006.91
2023-01-02T07:14:28.017Z,1006.92
2023-01-02T07:15:28.027Z,1006.97
2023-01-02T07:16:28.005Z,1007.01
2023-01-02T07:17:27.957Z,1006.96
2023-01-02T07:18:27.966Z,1006.98
2023-01-02T07:19:28.014Z,1007.03
2023-01-02T07:20:27.976Z,1007.01
2023-01-02T07:21:27.941Z,1007.02
2023-01-02T07:22:27.919Z,1007.03
2023-01-02T07:23:27.900Z,1007.05
2023-01-02T07:24:27.957Z,1007.08
2023-01-02T07:25:27.859Z,1007.09
2023-01-02T07:26:27.879Z,1007.08
2023-01-02T07:27:27.903Z,1007.11
2023-01-02T07:28:27.842Z,1007.11
2023-01-02T07:29:27.846Z,1007.11
2023-01-02T07:30:27.902Z,1007.15
2023-01-02T07:31:27.823Z,1007.14
2023-01-02T07:32:27.979Z,1007.15
2023-01-02T07:33:27.809Z,1007.12
2023-01-02T07:34:27.788Z,1007.18
2023-01-02T07:35:27.758Z,1007.17
2023-01-02T07:36:27.792Z,1007.21
2023-01-02T07:37:27.772Z,1007.25
2023-01-02T07:38:27.743Z,1007.30
2023-01-02T07:39:27.729Z,1007.32
2023-01-02T07:40:32.129Z,1007.34
2023-01-02T07:41:27.724Z,1007.34
2023-01-02T07:42:27.696Z,1007.33
2023-01-02T07:43:27.739Z,1007.41
2023-01-02T07:44:27.708Z,1007.37
2023-01-02T07:45:27.678Z,1007.37
2023-01-02T07:46:27.713Z,1007.44
2023-01-02T07:47:27.637Z,1007.41
2023-01-02T07:48:27.643Z,1007.45
2023-01-02T07:49:27.644Z,1007.45
2023-01-02T07:50:27.800Z,1007.46
2023-01-02T07:51:27.878Z,1007.52
2023-01-02T07:52:27.627Z,1007.51
2023-01-02T07:53:27.583Z,1007.53
2023-01-02T07:54:27.583Z,1007.56
2023-01-02T07:55:27.590Z,1007.55
2023-01-02T07:56:27.578Z,1007.54
2023-01-02T07:57:27.556Z,1007.57
2023-01-02T07:58:27.533Z,1007.55
2023-01-02T07:59:27.525Z,1007.57
2023-01-02T08:00:27.562Z,1007.68
2023-01-02T08:01:27.573Z,1007.66
2023-01-02T08:02:27.612Z,1007.69
2023-01-02T08:03:27.487Z,1007.70
2023-01-02T08:04:27.541Z,1007.72
2023-01-02T08:05:27.546Z,1007.70
2023-01-02T08:06:27.455Z,1007.71
2023-01-02T08:07:27.452Z,1007.73
2023-01-02T08:08:27.412Z,1007.74
2023-01-02T08:09:27.429Z,1007.76
2023-01-02T08:10:27.461Z,1007.72
2023-01-02T08:11:27.377Z,1007.75
2023-01-02T08:12:27.382Z,1007.79
2023-01-02T08:13:27.393Z,1007.78
2023-01-02T08:14:27.362Z,1007.83
2023-01-02T08:15:27.342Z,1007.84
2023-01-02T08:16:27.385Z,1007.79
2023-01-02T08:17:27.332Z,1007.85
2023-01-02T08:18:27.305Z,1007.87
2023-01-02T08:19:27.341Z,1007.90
2023-01-02T08:20:27.325Z,1007.90
2023-01-02T08:21:27.288Z,1007.87
2023-01-02T08:22:27.259Z,1007.83
2023-01-02T08:23:27.295Z,1007.87
2023-01-02T08:24:27.234Z,1007.88
2023-01-02T08:25:27.251Z,1007.93
2023-01-02T08:26:27.247Z,1007.97
2023-01-02T08:27:27.215Z,1007.95
2023-01-02T08:28:27.212Z,1007.99
2023-01-02T08:29:27.196Z,1007.95
2023-01-02T08:30:27.165Z,1007.99
2023-01-02T08:31:27.212Z,1008.00
2023-01-02T08:32:27.175Z,1008.01
2023-01-02T08:33:27.168Z,1007.95
2023-01-02T08:34:27.132Z,1008.03
2023-01-02T08:35:38.027Z,1008.07
2023-01-02T08:36:27.156Z,1008.07
2023-01-02T08:37:27.124Z,1008.13
2023-01-02T08:38:27.113Z,1008.16
2023-01-02T08:39:27.110Z,1008.16
2023-01-02T08:40:27.064Z,1008.20
2023-01-02T08:41:27.079Z,1008.20
2023-01-02T08:42:27.064Z,1008.22
2023-01-02T08:43:27.087Z,1008.25
2023-01-02T08:44:27.034Z,1008.31
2023-01-02T08:45:27.038Z,1008.26
2023-01-02T08:46:27.034Z,1008.32
2023-01-02T08:47:27.003Z,1008.34
2023-01-02T08:48:27.000Z,1008.43
2023-01-02T08:49:26.988Z,1008.46
2023-01-02T08:50:26.961Z,1008.50
2023-01-02T08:51:26.957Z,1008.55
2023-01-02T08:52:26.943Z,1008.57
2023-01-02T08:53:26.931Z,1008.67
2023-01-02T08:54:26.931Z,1008.71
2023-01-02T08:55:26.932Z,1008.76
2023-01-02T08:56:26.920Z,1008.79
2023-01-02T08:57:26.895Z,1008.81
2023-01-02T08:58:26.912Z,1008.86
2023-01-02T08:59:26.911Z,1008.89
2023-01-02T09:00:26.844Z,1008.92
2023-01-02T09:01:26.968Z,1008.96
2023-01-02T09:02:27.186Z,1009.04
2023-01-02T09:03:26.904Z,1009.05
2023-01-02T09:04:26.801Z,1009.09
2023-01-02T09:05:26.829Z,1009.17
2023-01-02T09:06:26.818Z,1009.21
2023-01-02T09:07:26.833Z,1009.22
2023-01-02T09:08:26.809Z,1009.26
2023-01-02T09:09:26.778Z,1009.27
2023-01-02T09:10:26.746Z,1009.36
2023-01-02T09:11:26.787Z,1009.40
2023-01-02T09:12:26.751Z,1009.45
2023-01-02T09:13:26.721Z,1009.45
2023-01-02T09:14:26.708Z,1009.50
2023-01-02T09:15:26.749Z,1009.53
2023-01-02T09:16:26.700Z,1009.57
2023-01-02T09:17:26.704Z,1009.58
2023-01-02T09:18:29.491Z,1009.62
2023-01-02T09:19:26.677Z,1009.71
2023-01-02T09:20:26.637Z,1009.72
2023-01-02T09:21:26.664Z,1009.78
2023-01-02T09:22:26.633Z,1009.79
2023-01-02T09:23:26.632Z,1009.77
2023-01-02T09:24:26.600Z,1009.80
2023-01-02T09:25:26.610Z,1009.79
2023-01-02T09:26:26.621Z,1009.83
2023-01-02T09:27:26.568Z,1009.83
2023-01-02T09:28:26.585Z,1009.88
2023-01-02T09:29:26.564Z,1009.90
2023-01-02T09:30:26.567Z,1009.97
2023-01-02T09:31:26.556Z,1009.97
2023-01-02T09:32:26.543Z,1009.98
2023-01-02T09:33:26.521Z,1010.03
2023-01-02T09:34:26.541Z,1010.09
2023-01-02T09:35:26.520Z,1010.10
2023-01-02T09:36:26.489Z,1010.16
2023-01-02T09:37:26.469Z,1010.15
2023-01-02T09:38:26.456Z,1010.19
2023-01-02T09:39:32.191Z,1010.19
2023-01-02T09:40:26.450Z,1010.24
2023-01-02T09:41:26.498Z,1010.21
2023-01-02T09:42:26.455Z,1010.17
2023-01-02T09:43:26.390Z,1010.18
2023-01-02T09:44:26.403Z,1010.21
2023-01-02T09:45:26.396Z,1010.17
2023-01-02T09:46:26.401Z,1010.09
2023-01-02T09:47:26.369Z,1010.12
2023-01-02T09:48:26.375Z,1010.13
2023-01-02T09:49:26.360Z,1010.18
2023-01-02T09:50:26.313Z,1010.24
2023-01-02T09:51:26.333Z,1010.26
2023-01-02T09:52:26.317Z,1010.26
2023-01-02T09:53:26.302Z,1010.29
2023-01-02T09:54:26.304Z,1010.25
2023-01-02T09:55:26.278Z,1010.29
2023-01-02T09:56:30.382Z,1010.28
2023-01-02T09:57:26.326Z,1010.29
2023-01-02T09:58:26.237Z,1010.32
2023-01-02T09:59:26.301Z,1010.36
2023-01-02T10:00:26.230Z,1010.39
2023-01-02T10:01:26.287Z,1010.38
2023-01-02T10:02:26.187Z,1010.37
2023-01-02T10:03:26.283Z,1010.38
2023-01-02T10:04:26.227Z,1010.38
2023-01-02T10:05:26.195Z,1010.41
2023-01-02T10:06:26.163Z,1010.43
2023-01-02T10:07:26.190Z,1010.45
2023-01-02T10:08:31.740Z,1010.47
2023-01-02T10:09:26.173Z,1010.51
2023-01-02T10:10:26.138Z,1010.53
2023-01-02T10:11:26.146Z,1010.56
2023-01-02T10:12:26.083Z,1010.60
2023-01-02T10:13:44.161Z,1010.63
2023-01-02T10:14:34.785Z,1010.66
2023-01-02T10:15:26.077Z,1010.67
2023-01-02T10:16:26.118Z,1010.69
2023-01-02T10:17:26.077Z,1010.68
2023-01-02T10:18:26.037Z,1010.72
2023-01-02T10:19:26.027Z,1010.71
2023-01-02T10:20:26.126Z,1010.76
2023-01-02T10:21:26.007Z,1010.79
2023-01-02T10:22:25.994Z,1010.85
2023-01-02T10:23:25.995Z,1010.85
2023-01-02T10:24:25.991Z,1010.82
2023-01-02T10:25:25.980Z,1010.80
2023-01-02T10:26:25.934Z,1010.78
2023-01-02T10:27:25.985Z,1010.79
2023-01-02T10:28:25.911Z,1010.77
2023-01-02T10:29:25.907Z,1010.79
2023-01-02T10:30:25.882Z,1010.79
2023-01-02T10:31:25.970Z,1010.81
2023-01-02T10:32:25.911Z,1010.78
2023-01-02T10:33:25.943Z,1010.77
2023-01-02T10:34:25.933Z,1010.78
2023-01-02T10:35:25.838Z,1010.80
2023-01-02T10:36:25.832Z,1010.83
2023-01-02T10:37:25.836Z,1010.87
2023-01-02T10:38:25.802Z,1010.91
2023-01-02T10:39:25.791Z,1010.90
2023-01-02T10:40:25.915Z,1010.90
2023-01-02T10:41:25.785Z,1010.91
2023-01-02T10:42:25.770Z,1010.90
2023-01-02T10:43:25.764Z,1010.90
2023-01-02T10:44:25.747Z,1010.94
2023-01-02T10:45:25.738Z,1010.96
2023-01-02T10:46:25.785Z,1010.96
2023-01-02T10:47:25.747Z,1010.95
2023-01-02T10:48:25.699Z,1010.95
2023-01-02T10:49:25.723Z,1010.92
2023-01-02T10:50:25.698Z,1010.88
2023-01-02T10:51:25.687Z,1010.79
2023-01-02T10:52:25.660Z,1010.75
2023-01-02T10:53:25.672Z,1010.70
2023-01-02T10:54:25.673Z,1010.73
2023-01-02T10:55:25.718Z,1010.72
2023-01-02T10:56:25.679Z,1010.68
2023-01-02T10:57:25.621Z,1010.69
2023-01-02T10:58:25.625Z,1010.70
2023-01-02T10:59:25.640Z,1010.71
2023-01-02T11:00:28.090Z,1010.70
2023-01-02T11:01:25.665Z,1010.71
2023-01-02T11:02:25.623Z,1010.72
2023-01-02T11:03:25.601Z,1010.76
2023-01-02T11:04:25.565Z,1010.79
2023-01-02T11:05:25.572Z,1010.80
2023-01-02T11:06:28.231Z,1010.80
2023-01-02T11:07:25.524Z,1010.77
2023-01-02T11:08:25.512Z,1010.81
2023-01-02T11:09:25.510Z,1010.85
2023-01-02T11:10:25.501Z,1010.88
2023-01-02T11:11:25.476Z,1010.88
2023-01-02T11:12:27.419Z,1010.90
2023-01-02T11:13:25.446Z,1010.87
2023-01-02T11:14:25.468Z,1010.89
2023-01-02T11:15:25.437Z,1010.91
2023-01-02T11:16:25.522Z,1010.93
2023-01-02T11:17:25.427Z,1010.94
2023-01-02T11:18:25.385Z,1010.93
2023-01-02T11:19:29.695Z,1010.93
2023-01-02T11:20:25.388Z,1010.98
2023-01-02T11:21:25.388Z,1011.04
2023-01-02T11:22:25.383Z,1011.08
2023-01-02T11:23:25.378Z,1011.12
2023-01-02T11:24:25.371Z,1011.18
2023-01-02T11:25:25.317Z,1011.15
2023-01-02T11:26:25.352Z,1011.16
2023-01-02T11:27:25.300Z,1011.15
2023-01-02T11:28:25.285Z,1011.20
2023-01-02T11:29:25.297Z,1011.24
2023-01-02T11:30:25.293Z,1011.25
2023-01-02T11:31:25.343Z,1011.28
2023-01-02T11:32:25.275Z,1011.31
2023-01-02T11:33:25.268Z,1011.33
2023-01-02T11:34:25.242Z,1011.35
2023-01-02T11:35:25.230Z,1011.36
2023-01-02T11:36:25.212Z,1011.38
2023-01-02T11:37:25.215Z,1011.39
2023-01-02T11:38:29.868Z,1011.40
2023-01-02T11:39:25.208Z,1011.42
2023-01-02T11:40:25.178Z,1011.45
2023-01-02T11:41:25.153Z,1011.47
2023-01-02T11:42:25.164Z,1011.43
2023-01-02T11:43:25.132Z,1011.46
2023-01-02T11:44:25.121Z,1011.43
2023-01-02T11:45:25.205Z,1011.48
2023-01-02T11:46:25.128Z,1011.50
2023-01-02T11:47:25.151Z,1011.52
2023-01-02T11:48:25.092Z,1011.53
2023-01-02T11:49:25.067Z,1011.50
2023-01-02T11:50:25.145Z,1011.48
2023-01-02T11:51:25.040Z,1011.47
2023-01-02T11:52:25.041Z,1011.44
2023-01-02T11:53:25.079Z,1011.40
2023-01-02T11:54:25.016Z,1011.39
2023-01-02T11:55:25.039Z,1011.39
2023-01-02T11:56:25.076Z,1011.40
2023-01-02T11:57:24.998Z,1011.45
2023-01-02T11:58:24.971Z,1011.48
2023-01-02T11:59:25.003Z,1011.50
2023-01-02T12:00:24.971Z,1011.53
2023-01-02T12:01:24.975Z,1011.51
2023-01-02T12:02:25.006Z,1011.50
2023-01-02T12:03:25.043Z,1011.53
2023-01-02T12:04:24.919Z,1011.53
2023-01-02T12:05:24.911Z,1011.51